Latest Coastal Weather Observations for Maatsuyker Island

IDT60701

Issued at 3:45 am EDT Sunday 26 October 2014 (issued every 10 minutes, with the page automatically refreshed every 10 minutes)

About coastal observations | Map of coastal stations | Coastal observations for TAS | Marine services | Other Formats
Station Details ID: 094041 Name: MAATSUYKER ISLAND LIGHTHOUSE Lat: -43.66 Lon: 146.27 Height: 146.5 m
Data from the previous 72 hours. | See also: Recent months at Maatsuyker Island
Date/Time
EDT
Temp

°C
Wind Pressure Rain
since 9am
mm
Weather Cloud Vis
km
Sea
Height
m
Swell
Dir
 
Speed
knots
Gust
knots
hPa Trend Height
m
Period
s
Dir
26/03:30am 9.3 WNW 7 13 1014.1 - 1.4 - - - - - - -
26/03:00am 9.2 WNW 8 14 1014.0 - 1.4 - - - - - - -
26/02:30am 9.2 WNW 7 14 1014.1 - 1.4 - - - - - - -
26/02:00am 9.2 WNW 6 11 1014.7 - 1.4 - - - - - - -
26/01:30am 9.3 NW 7 13 1015.5 - 1.4 - - - - - - -
26/01:00am 9.5 NW 5 8 1016.4 - 1.4 - - - - - - -
26/12:30am 9.5 NNW 5 9 1016.8 - 1.4 - - - - - - -
26/12:00am 9.5 NW 5 8 1017.2 - 1.4 - - - - - - -
 
Date/Time
EDT
Temp

°C
Wind Pressure Rain
since 9am
mm
Weather Cloud Vis
km
Sea
Height
m
Swell
Dir
 
Speed
knots
Gust
knots
hPa Trend Height
m
Period
s
Dir
25/11:30pm 9.4 N 4 7 1017.2 - 1.4 - - - - - - -
25/11:00pm 9.3 NW 5 10 1017.2 - 1.4 - - - - - - -
25/10:30pm 9.2 NW 5 9 1017.1 - 1.4 - - - - - - -
25/10:00pm 9.2 N 6 14 1017.2 - 1.4 - - - - - - -
25/09:30pm 9.1 NW 4 7 1017.1 - 1.4 - - - - - - -
25/09:00pm 8.8 NNW 4 6 1017.5 - 1.4 - - - - - - -
25/08:30pm 8.9 NNW 2 4 1017.4 - 1.4 - - - - - - -
25/08:00pm 8.9 N 2 6 1017.1 - 1.4 - - - - - - -
25/07:30pm 9.2 NNE 3 5 1017.1 - 1.4 - - - - - - -
25/07:00pm 9.5 ENE 5 9 1017.3 - 1.4 - - - - - - -
25/06:30pm 10.0 NE 4 9 1017.2 - 1.4 - - - - - - -
25/06:00pm 10.3 SSE 13 16 1017.2 - 1.4 - - - - - - -
25/05:30pm 10.5 S 14 17 1017.4 - 1.4 - - - - - - -
25/05:00pm 10.3 S 14 16 1017.1 - 1.4 - - - - - - -
25/04:30pm 11.0 SSE 14 17 1016.9 - 1.4 - - - - - - -
25/04:00pm 10.9 SSE 13 16 1017.1 - 1.4 - - - - - - -
25/03:30pm 11.0 S 11 14 1017.5 - 1.4 - - - - - - -
25/03:00pm 12.1 SE 10 15 1017.4 R 1.4 Haze Cloudy 8 <0.5 1.5 14 SW
25/02:30pm 11.7 S 11 13 1017.4 - 1.4 - - - - - - -
25/02:00pm 11.5 S 12 14 1017.6 - 1.4 - - - - - - -
25/01:30pm 10.9 SSW 12 15 1017.5 - 1.4 - - - - - - -
25/01:00pm 11.6 SSW 11 13 1017.6 - 1.4 - - - - - - -
25/12:30pm 10.8 SSW 14 18 1017.6 - 1.4 - - - - - - -
25/12:00pm 10.3 W 9 15 1017.7 - 1.4 - - - - - - -
25/11:30am 10.3 WSW 11 16 1017.6 - 1.4 - - - - - - -
25/11:00am 9.7 SW 11 16 1017.4 - 1.4 - - - - - - -
25/10:30am 10.0 WSW 10 17 1017.2 - 1.2 - - - - - - -
25/10:00am 9.9 WNW 13 16 1016.7 - 1.0 - - - - - - -
25/09:30am 10.4 WNW 11 13 1016.2 - 0.2 - - - - - - -
25/09:00am 10.4 SW 12 19 1016.1 R 2.4 Drizzle Cloudy 8 <0.5 1.0 14 SW
25/08:30am 10.1 NW 16 19 1015.7 - 2.4 - - - - - - -
25/08:00am 10.0 WNW 13 17 1015.3 - 2.4 - - - - - - -
25/07:30am 10.1 NW 14 17 1015.0 - 2.4 - - - - - - -
25/07:00am 10.0 W 15 19 1014.6 - 2.4 - - - - - - -
25/06:30am 10.2 WNW 14 17 1014.1 - 2.4 - - - - - - -
25/06:00am 10.3 W 10 15 1013.5 R 2.4 Distant precip. Cloudy 8 <0.5 1.0 14 SW
25/05:30am 10.6 WNW 18 21 1013.0 - 2.4 - - - - - - -
25/05:00am 10.8 WNW 17 21 1012.4 - 2.4 - - - - - - -
25/04:30am 10.5 W 18 22 1012.3 - 2.4 - - - - - - -
25/04:00am 10.9 W 18 23 1012.1 - 2.4 - - - - - - -
25/03:30am 11.4 WNW 19 23 1011.5 - 2.4 - - - - - - -
25/03:00am 11.6 WNW 21 26 1011.5 - 2.4 - - - - - - -
25/02:30am 12.0 NW 20 23 1010.8 - 2.4 - - - - - - -
25/02:00am 12.0 NW 20 22 1010.6 - 2.4 - - - - - - -
25/01:30am 12.1 NW 21 23 1010.4 - 2.4 - - - - - - -
25/01:00am 12.2 NW 19 21 1010.2 - 2.4 - - - - - - -
25/12:30am 12.4 NW 20 22 1009.9 - 2.2 - - - - - - -
25/12:00am 12.2 NNW 21 23 1010.0 - 2.0 - - - - - - -
 
Date/Time
EDT
Temp

°C
Wind Pressure Rain
since 9am
mm
Weather Cloud Vis
km
Sea
Height
m
Swell
Dir
 
Speed
knots
Gust
knots
hPa Trend Height
m
Period
s
Dir
24/11:30pm 11.9 NNW 19 23 1009.5 - 1.6 - - - - - - -
24/11:00pm 11.9 NNW 22 23 1009.5 - 1.4 - - - - - - -
24/10:30pm 12.3 NW 24 26 1009.5 - 1.0 - - - - - - -
24/10:00pm 13.3 NNW 19 22 1009.1 - 1.0 - - - - - - -
24/09:30pm 13.2 NNW 16 21 1009.0 - 1.0 - - - - - - -
24/09:00pm 12.6 NNW 18 21 1008.8 - 1.0 - - - - - - -
24/08:30pm 12.5 NW 13 15 1008.7 - 0.6 - - - - - - -
24/08:00pm 13.7 NW 10 14 1008.4 - 0.2 - - - - - - -
24/07:30pm 14.3 N 9 11 1008.1 - 0.2 - - - - - - -
24/07:00pm 14.7 N 12 14 1007.8 - 0.0 - - - - - - -
24/06:30pm 16.5 NNW 5 8 1006.0 - 0.0 - - - - - - -
24/06:22pm 15.6 NNE 2 6 1006.1 - 0.0 - - - - - - -
24/06:00pm 14.9 N 3 5 1008.2 - 0.0 - - - - - - -
24/05:30pm 13.5 N 8 9 1008.5 - 0.0 - - - - - - -
24/05:00pm 14.4 NW 2 5 1008.7 - 0.0 - - - - - - -
24/04:30pm 14.8 SSE 4 6 1008.8 - 0.0 - - - - - - -
24/04:00pm 14.3 S 7 8 1009.3 - 0.0 - - - - - - -
24/03:30pm 15.2 SSE 9 10 1009.6 - 0.0 - - - - - - -
24/03:00pm 15.9 S 10 12 1010.1 F 0.0 Haze Mostly cloudy 12 <0.5 2.0 14 SW
24/02:30pm 15.0 S 13 15 1010.9 - 0.0 - - - - - - -
24/02:00pm 16.1 SSE 17 18 1010.9 - 0.0 - - - - - - -
24/01:30pm 15.8 SSE 14 16 1011.3 - 0.0 - - - - - - -
24/01:00pm 14.5 SSE 10 12 1011.8 - 0.0 - - - - - - -
24/12:30pm 15.0 SE 7 9 1012.2 - 0.0 - - - - - - -
24/12:00pm 15.0 S 5 6 1013.2 - 0.0 - - - - - - -
24/11:30am 16.5 N 7 9 1013.7 - 0.0 - - - - - - -
24/11:00am 15.6 N 8 10 1013.9 - 0.0 - - - - - - -
24/10:30am 14.1 N 8 11 1014.2 - 0.0 - - - - - - -
24/10:00am 13.8 NNW 6 11 1014.5 - 0.0 - - - - - - -
24/09:30am 14.3 N 7 10 1014.7 - 0.0 - - - - - - -
24/09:00am 13.2 N 10 14 1015.0 F 0.0 Haze Mostly cloudy 20 <0.5 1.5 13 SW
24/08:30am 11.4 N 9 13 1015.3 - 0.0 - - - - - - -
24/08:00am 12.1 NNE 8 11 1015.6 - 0.0 - - - - - - -
24/07:30am 11.2 ENE 2 7 1015.8 - 0.0 - - - - - - -
24/07:00am 11.3 ESE 1 4 1016.0 - 0.0 - - - - - - -
24/06:30am 11.3 E 3 6 1016.5 - 0.0 - - - - - - -
24/06:00am 11.2 NE 5 6 1016.9 F 0.0 Fine Partly cloudy 14 <0.5 1.5 13 SW
24/05:30am 10.3 N 5 7 1017.4 - 0.0 - - - - - - -
24/05:00am 11.4 NE 1 4 1017.8 - 0.0 - - - - - - -
24/04:30am 11.7 NNE 3 4 1018.2 - 0.0 - - - - - - -
24/04:00am 12.3 N 8 9 1018.5 - 0.0 - - - - - - -
24/03:30am 12.4 N 9 12 1019.0 - 0.0 - - - - - - -
24/03:00am 12.6 NNE 6 11 1019.4 - 0.0 - - - - - - -
24/02:30am 12.8 N 11 15 1019.6 - 0.0 - - - - - - -
24/02:00am 12.3 N 8 10 1020.0 - 0.0 - - - - - - -
24/01:30am 13.1 N 10 15 1020.1 - 0.0 - - - - - - -
24/01:00am 12.0 N 8 10 1020.5 - 0.0 - - - - - - -
24/12:30am 12.9 N 10 13 1020.8 - 0.0 - - - - - - -
24/12:00am 13.3 N 11 15 1021.2 - 0.0 - - - - - - -
 
Date/Time
EDT
Temp

°C
Wind Pressure Rain
since 9am
mm
Weather Cloud Vis
km
Sea
Height
m
Swell
Dir
 
Speed
knots
Gust
knots
hPa Trend Height
m
Period
s
Dir
23/11:30pm 13.1 N 11 18 1021.0 - 0.0 - - - - - - -
23/11:00pm 12.4 NNE 7 11 1021.3 - 0.0 - - - - - - -
23/10:30pm 12.7 NE 5 7 1021.3 - 0.0 - - - - - - -
23/10:00pm 12.3 NE 7 13 1021.2 - 0.0 - - - - - - -
23/09:30pm 12.4 ENE 11 22 1021.3 - 0.0 - - - - - - -
23/09:00pm 11.5 E 16 25 1021.7 - 0.0 - - - - - - -
23/08:38pm 11.3 E 15 25 1021.4 - 0.0 - - - - - - -
23/08:30pm 11.1 NNW 10 15 1021.2 - 0.0 - - - - - - -
23/08:00pm 10.7 WNW 8 15 1021.3 - 0.0 - - - - - - -
23/07:30pm 10.9 W 9 15 1020.9 - 0.0 - - - - - - -
23/07:00pm 11.2 WNW 9 15 1021.2 - 0.0 - - - - - - -
23/06:30pm 11.3 NW 10 23 1021.4 - 0.0 - - - - - - -
23/06:00pm 11.7 NW 9 14 1022.4 - 0.0 - - - - - - -
23/05:30pm 12.0 NNW 8 14 1022.5 - 0.0 - - - - - - -
23/05:00pm 12.4 NW 8 15 1022.8 - 0.0 - - - - - - -
23/04:30pm 12.9 NNW 8 13 1022.6 - 0.0 - - - - - - -
23/04:00pm 12.8 NNW 6 11 1022.8 - 0.0 - - - - - - -
23/03:30pm 12.7 NNW 7 14 1022.8 - 0.0 - - - - - - -
23/03:00pm 12.6 E 15 11 1023.3 F 0.0 Haze Clear 8 1 3.0 15 SW
23/02:30pm 12.6 NW 6 11 1023.3 - 0.0 - - - - - - -
23/02:00pm 12.7 NNW 6 16 1023.7 - 0.0 - - - - - - -
23/01:30pm 12.5 NW 5 8 1024.2 - 0.0 - - - - - - -
23/01:00pm 12.1 NNW 5 9 1024.5 - 0.0 - - - - - - -
23/12:30pm 11.7 NNW 6 11 1024.8 - 0.0 - - - - - - -
23/12:00pm 11.9 NW 5 - 1025.1 - - - - - - - - -
23/11:30am 11.8 NW 6 15 1025.0 - 0.0 - - - - - - -
23/11:00am 10.9 NNW 4 7 1025.7 - 0.0 - - - - - - -
23/10:30am 10.5 WNW 4 7 1025.8 - 0.0 - - - - - - -
23/10:00am 10.5 NNW 3 7 1025.7 - 0.0 - - - - - - -
23/09:30am 10.1 NNW 4 7 1025.5 - 0.0 - - - - - - -
23/09:00am 9.8 SE 3 5 1025.3 R 0.0 Haze Mostly cloudy 14 <0.5 3.0 13 SW
23/08:30am 9.5 NNW 3 6 1025.3 - 0.0 - - - - - - -
23/08:00am 9.2 NNW 3 5 1025.4 - 0.0 - - - - - - -
23/07:30am 9.0 NNW 3 5 1025.0 - 0.0 - - - - - - -
23/07:00am 8.4 N 4 6 1024.7 - 0.0 - - - - - - -
23/06:30am 8.4 N 3 4 1024.3 - 0.0 - - - - - - -
23/06:00am 8.6 SE 5 9 1024.1 R 0.0 Fine Mostly cloudy 10 <0.5 2.5 12 SW
23/05:30am 8.6 N 4 12 1023.7 - 0.0 - - - - - - -
23/05:00am 8.6 NE 6 13 1023.3 - 0.0 - - - - - - -
23/04:30am 8.9 ENE 7 13 1022.8 - 0.0 - - - - - - -
23/04:00am 8.8 NNE 5 7 1022.4 - 0.0 - - - - - - -

Other Formats:

Comma delimited format used in spreadsheet applications
http://www.bom.gov.au/fwo/IDT60701/IDT60701.94962.axf

JavaScript Object Notation format (JSON) in row-major order
http://www.bom.gov.au/fwo/IDT60701/IDT60701.94962.json